sensor_id;sensor_type;location;lat;lon;timestamp;temperature;humidity
41722;DHT22;27407;24.142;-110.310;2023-05-29T00:00:45;40.10;59.90
41722;DHT22;27407;24.142;-110.310;2023-05-29T00:03:12;39.30;60.70
41722;DHT22;27407;24.142;-110.310;2023-05-29T00:05:39;39.10;61.20
41722;DHT22;27407;24.142;-110.310;2023-05-29T00:08:06;39.40;60.60
41722;DHT22;27407;24.142;-110.310;2023-05-29T00:10:33;39.20;60.80
41722;DHT22;27407;24.142;-110.310;2023-05-29T00:13:01;38.80;61.20
41722;DHT22;27407;24.142;-110.310;2023-05-29T00:15:28;38.30;62.00
41722;DHT22;27407;24.142;-110.310;2023-05-29T00:17:56;38.30;61.80
41722;DHT22;27407;24.142;-110.310;2023-05-29T00:20:23;38.60;61.60
41722;DHT22;27407;24.142;-110.310;2023-05-29T00:22:50;38.70;61.10
41722;DHT22;27407;24.142;-110.310;2023-05-29T00:25:16;38.40;61.60
41722;DHT22;27407;24.142;-110.310;2023-05-29T00:27:43;38.10;62.20
41722;DHT22;27407;24.142;-110.310;2023-05-29T00:30:10;37.60;62.70
41722;DHT22;27407;24.142;-110.310;2023-05-29T00:32:37;37.20;63.40
41722;DHT22;27407;24.142;-110.310;2023-05-29T00:35:04;37.10;63.10
41722;DHT22;27407;24.142;-110.310;2023-05-29T00:37:30;36.80;63.40
41722;DHT22;27407;24.142;-110.310;2023-05-29T00:39:57;36.80;63.10
41722;DHT22;27407;24.142;-110.310;2023-05-29T00:42:24;36.50;63.90
41722;DHT22;27407;24.142;-110.310;2023-05-29T00:44:50;36.80;63.70
41722;DHT22;27407;24.142;-110.310;2023-05-29T00:47:17;36.50;63.70
41722;DHT22;27407;24.142;-110.310;2023-05-29T00:49:44;35.80;64.60
41722;DHT22;27407;24.142;-110.310;2023-05-29T00:52:11;36.00;64.30
41722;DHT22;27407;24.142;-110.310;2023-05-29T00:54:38;35.70;64.40
41722;DHT22;27407;24.142;-110.310;2023-05-29T00:57:06;34.90;66.00
41722;DHT22;27407;24.142;-110.310;2023-05-29T00:59:33;34.80;66.50
41722;DHT22;27407;24.142;-110.310;2023-05-29T01:02:01;34.60;66.90
41722;DHT22;27407;24.142;-110.310;2023-05-29T01:04:31;34.30;67.70
41722;DHT22;27407;24.142;-110.310;2023-05-29T01:07:02;33.80;68.30
41722;DHT22;27407;24.142;-110.310;2023-05-29T01:09:30;33.70;68.40
41722;DHT22;27407;24.142;-110.310;2023-05-29T01:12:22;33.70;68.30
41722;DHT22;27407;24.142;-110.310;2023-05-29T01:17:34;32.90;69.90
41722;DHT22;27407;24.142;-110.310;2023-05-29T01:25:46;31.90;73.00
41722;DHT22;27407;24.142;-110.310;2023-05-29T01:28:18;31.50;74.10
41722;DHT22;27407;24.142;-110.310;2023-05-29T01:30:48;30.90;75.50
41722;DHT22;27407;24.142;-110.310;2023-05-29T01:33:16;30.60;76.00
41722;DHT22;27407;24.142;-110.310;2023-05-29T01:35:42;30.30;76.70
41722;DHT22;27407;24.142;-110.310;2023-05-29T01:38:09;30.10;77.10
41722;DHT22;27407;24.142;-110.310;2023-05-29T01:40:36;29.90;78.60
41722;DHT22;27407;24.142;-110.310;2023-05-29T01:43:03;29.70;79.10
41722;DHT22;27407;24.142;-110.310;2023-05-29T01:45:30;29.40;80.20
41722;DHT22;27407;24.142;-110.310;2023-05-29T01:47:57;29.00;80.80
41722;DHT22;27407;24.142;-110.310;2023-05-29T01:50:24;28.80;82.30
41722;DHT22;27407;24.142;-110.310;2023-05-29T01:52:51;28.70;82.90
41722;DHT22;27407;24.142;-110.310;2023-05-29T01:55:17;28.30;83.90
41722;DHT22;27407;24.142;-110.310;2023-05-29T01:57:44;27.90;85.20
41722;DHT22;27407;24.142;-110.310;2023-05-29T02:00:12;27.60;85.90
41722;DHT22;27407;24.142;-110.310;2023-05-29T02:02:38;27.50;86.90
41722;DHT22;27407;24.142;-110.310;2023-05-29T02:05:07;27.10;88.20
41722;DHT22;27407;24.142;-110.310;2023-05-29T02:07:37;26.80;89.80
41722;DHT22;27407;24.142;-110.310;2023-05-29T02:10:05;26.60;90.30
41722;DHT22;27407;24.142;-110.310;2023-05-29T02:12:32;26.60;90.40
41722;DHT22;27407;24.142;-110.310;2023-05-29T02:14:58;26.40;91.20
41722;DHT22;27407;24.142;-110.310;2023-05-29T02:17:25;26.20;91.70
41722;DHT22;27407;24.142;-110.310;2023-05-29T02:19:52;25.90;92.10
41722;DHT22;27407;24.142;-110.310;2023-05-29T02:22:18;25.80;92.30
41722;DHT22;27407;24.142;-110.310;2023-05-29T02:24:45;25.60;92.90
41722;DHT22;27407;24.142;-110.310;2023-05-29T02:27:12;25.50;93.40
41722;DHT22;27407;24.142;-110.310;2023-05-29T02:29:38;25.50;93.80
41722;DHT22;27407;24.142;-110.310;2023-05-29T02:32:05;25.20;94.50
41722;DHT22;27407;24.142;-110.310;2023-05-29T02:34:32;25.00;95.20
41722;DHT22;27407;24.142;-110.310;2023-05-29T02:36:59;25.00;95.60
41722;DHT22;27407;24.142;-110.310;2023-05-29T02:39:26;24.90;96.20
41722;DHT22;27407;24.142;-110.310;2023-05-29T02:41:52;24.70;96.80
41722;DHT22;27407;24.142;-110.310;2023-05-29T02:44:20;24.50;97.50
41722;DHT22;27407;24.142;-110.310;2023-05-29T02:46:46;24.60;98.20
41722;DHT22;27407;24.142;-110.310;2023-05-29T02:49:13;24.60;98.30
41722;DHT22;27407;24.142;-110.310;2023-05-29T02:51:40;24.50;98.90
41722;DHT22;27407;24.142;-110.310;2023-05-29T02:54:06;24.30;99.70
41722;DHT22;27407;24.142;-110.310;2023-05-29T02:56:33;24.30;99.90
41722;DHT22;27407;24.142;-110.310;2023-05-29T02:59:00;24.10;99.90
41722;DHT22;27407;24.142;-110.310;2023-05-29T03:01:27;24.00;99.90
41722;DHT22;27407;24.142;-110.310;2023-05-29T03:03:53;23.70;99.90
41722;DHT22;27407;24.142;-110.310;2023-05-29T03:06:20;23.70;99.90
41722;DHT22;27407;24.142;-110.310;2023-05-29T03:08:46;23.70;99.90
41722;DHT22;27407;24.142;-110.310;2023-05-29T03:11:14;23.70;99.90
41722;DHT22;27407;24.142;-110.310;2023-05-29T03:13:41;23.90;99.90
41722;DHT22;27407;24.142;-110.310;2023-05-29T03:16:08;23.70;99.90
41722;DHT22;27407;24.142;-110.310;2023-05-29T03:18:34;23.50;99.90
41722;DHT22;27407;24.142;-110.310;2023-05-29T03:21:01;23.50;99.90
41722;DHT22;27407;24.142;-110.310;2023-05-29T03:23:28;23.50;99.90
41722;DHT22;27407;24.142;-110.310;2023-05-29T03:25:54;23.40;99.90
41722;DHT22;27407;24.142;-110.310;2023-05-29T03:28:21;23.30;99.90
41722;DHT22;27407;24.142;-110.310;2023-05-29T03:30:48;23.20;99.90
41722;DHT22;27407;24.142;-110.310;2023-05-29T03:33:14;23.00;99.90
41722;DHT22;27407;24.142;-110.310;2023-05-29T03:35:41;22.90;99.90
41722;DHT22;27407;24.142;-110.310;2023-05-29T03:38:08;22.90;99.90
41722;DHT22;27407;24.142;-110.310;2023-05-29T03:40:34;22.70;99.90
41722;DHT22;27407;24.142;-110.310;2023-05-29T03:43:01;22.60;99.90
41722;DHT22;27407;24.142;-110.310;2023-05-29T03:45:27;22.50;99.90
41722;DHT22;27407;24.142;-110.310;2023-05-29T03:47:54;22.40;99.90
41722;DHT22;27407;24.142;-110.310;2023-05-29T03:50:21;22.40;99.90
41722;DHT22;27407;24.142;-110.310;2023-05-29T03:52:47;22.20;99.90
41722;DHT22;27407;24.142;-110.310;2023-05-29T03:55:15;22.20;99.90
41722;DHT22;27407;24.142;-110.310;2023-05-29T03:57:42;22.00;99.90
41722;DHT22;27407;24.142;-110.310;2023-05-29T04:00:09;22.00;99.90
41722;DHT22;27407;24.142;-110.310;2023-05-29T04:02:40;22.10;99.90
41722;DHT22;27407;24.142;-110.310;2023-05-29T04:05:08;21.90;99.90
41722;DHT22;27407;24.142;-110.310;2023-05-29T04:07:40;21.90;99.90
41722;DHT22;27407;24.142;-110.310;2023-05-29T04:10:07;21.80;99.90
41722;DHT22;27407;24.142;-110.310;2023-05-29T04:12:34;21.80;99.90
41722;DHT22;27407;24.142;-110.310;2023-05-29T04:15:00;21.80;99.90
41722;DHT22;27407;24.142;-110.310;2023-05-29T04:17:27;21.80;99.90
41722;DHT22;27407;24.142;-110.310;2023-05-29T04:19:54;21.70;99.90
41722;DHT22;27407;24.142;-110.310;2023-05-29T04:22:23;21.70;99.90
41722;DHT22;27407;24.142;-110.310;2023-05-29T04:24:50;21.70;99.90
41722;DHT22;27407;24.142;-110.310;2023-05-29T04:27:17;21.70;99.90
41722;DHT22;27407;24.142;-110.310;2023-05-29T04:29:44;21.70;99.90
41722;DHT22;27407;24.142;-110.310;2023-05-29T04:32:11;21.70;99.90
41722;DHT22;27407;24.142;-110.310;2023-05-29T04:34:44;21.70;99.90
41722;DHT22;27407;24.142;-110.310;2023-05-29T04:37:11;21.80;99.90
41722;DHT22;27407;24.142;-110.310;2023-05-29T04:39:39;21.70;99.90
41722;DHT22;27407;24.142;-110.310;2023-05-29T04:42:06;21.60;99.90
41722;DHT22;27407;24.142;-110.310;2023-05-29T04:44:32;21.70;99.90
41722;DHT22;27407;24.142;-110.310;2023-05-29T04:46:59;21.60;99.90
41722;DHT22;27407;24.142;-110.310;2023-05-29T04:49:29;21.60;99.90
41722;DHT22;27407;24.142;-110.310;2023-05-29T04:51:56;21.60;99.90
41722;DHT22;27407;24.142;-110.310;2023-05-29T04:54:26;21.60;99.90
41722;DHT22;27407;24.142;-110.310;2023-05-29T04:56:53;21.50;99.90
41722;DHT22;27407;24.142;-110.310;2023-05-29T05:02:18;21.50;99.90
41722;DHT22;27407;24.142;-110.310;2023-05-29T05:04:44;21.60;99.90
41722;DHT22;27407;24.142;-110.310;2023-05-29T05:07:12;21.60;99.90
41722;DHT22;27407;24.142;-110.310;2023-05-29T05:09:39;21.40;99.90
41722;DHT22;27407;24.142;-110.310;2023-05-29T05:12:08;21.40;99.90
41722;DHT22;27407;24.142;-110.310;2023-05-29T05:14:35;21.70;99.90
41722;DHT22;27407;24.142;-110.310;2023-05-29T05:17:02;21.50;99.90
41722;DHT22;27407;24.142;-110.310;2023-05-29T05:19:29;21.50;99.90
41722;DHT22;27407;24.142;-110.310;2023-05-29T05:21:56;21.60;99.90
41722;DHT22;27407;24.142;-110.310;2023-05-29T05:24:23;21.50;99.90
41722;DHT22;27407;24.142;-110.310;2023-05-29T05:26:49;21.40;99.90
41722;DHT22;27407;24.142;-110.310;2023-05-29T05:29:16;21.50;99.90
41722;DHT22;27407;24.142;-110.310;2023-05-29T05:31:44;21.30;99.90
41722;DHT22;27407;24.142;-110.310;2023-05-29T05:34:11;21.20;99.90
41722;DHT22;27407;24.142;-110.310;2023-05-29T05:36:37;21.20;99.90
41722;DHT22;27407;24.142;-110.310;2023-05-29T05:39:04;21.10;99.90
41722;DHT22;27407;24.142;-110.310;2023-05-29T05:41:31;21.10;99.90
41722;DHT22;27407;24.142;-110.310;2023-05-29T05:43:58;21.20;99.90
41722;DHT22;27407;24.142;-110.310;2023-05-29T05:46:24;21.20;99.90
41722;DHT22;27407;24.142;-110.310;2023-05-29T05:48:52;21.20;99.90
41722;DHT22;27407;24.142;-110.310;2023-05-29T05:51:23;21.20;99.90
41722;DHT22;27407;24.142;-110.310;2023-05-29T05:53:50;21.20;99.90
41722;DHT22;27407;24.142;-110.310;2023-05-29T05:56:17;21.10;99.90
41722;DHT22;27407;24.142;-110.310;2023-05-29T05:58:43;21.20;99.90
41722;DHT22;27407;24.142;-110.310;2023-05-29T06:01:10;21.10;99.90
41722;DHT22;27407;24.142;-110.310;2023-05-29T06:03:37;21.00;99.90
41722;DHT22;27407;24.142;-110.310;2023-05-29T06:06:03;21.00;99.90
41722;DHT22;27407;24.142;-110.310;2023-05-29T06:08:30;21.00;99.90
41722;DHT22;27407;24.142;-110.310;2023-05-29T06:10:57;21.00;99.90
41722;DHT22;27407;24.142;-110.310;2023-05-29T06:13:23;21.00;99.90
41722;DHT22;27407;24.142;-110.310;2023-05-29T06:15:50;21.00;99.90
41722;DHT22;27407;24.142;-110.310;2023-05-29T06:18:17;20.80;99.90
41722;DHT22;27407;24.142;-110.310;2023-05-29T06:20:44;20.80;99.90
41722;DHT22;27407;24.142;-110.310;2023-05-29T06:23:10;20.90;99.90
41722;DHT22;27407;24.142;-110.310;2023-05-29T06:25:37;20.80;99.90
41722;DHT22;27407;24.142;-110.310;2023-05-29T06:28:04;20.70;99.90
41722;DHT22;27407;24.142;-110.310;2023-05-29T06:30:33;20.80;99.90
41722;DHT22;27407;24.142;-110.310;2023-05-29T06:33:00;20.70;99.90
41722;DHT22;27407;24.142;-110.310;2023-05-29T06:35:30;20.60;99.90
41722;DHT22;27407;24.142;-110.310;2023-05-29T06:37:56;20.70;99.90
41722;DHT22;27407;24.142;-110.310;2023-05-29T06:40:23;20.50;99.90
41722;DHT22;27407;24.142;-110.310;2023-05-29T06:42:49;20.60;99.90
41722;DHT22;27407;24.142;-110.310;2023-05-29T06:45:34;20.50;99.90
41722;DHT22;27407;24.142;-110.310;2023-05-29T06:48:03;20.20;99.90
41722;DHT22;27407;24.142;-110.310;2023-05-29T06:50:30;20.30;99.90
41722;DHT22;27407;24.142;-110.310;2023-05-29T06:52:57;20.20;99.90
41722;DHT22;27407;24.142;-110.310;2023-05-29T06:55:26;20.30;99.90
41722;DHT22;27407;24.142;-110.310;2023-05-29T06:57:52;20.00;99.90
41722;DHT22;27407;24.142;-110.310;2023-05-29T07:00:19;20.00;99.90
41722;DHT22;27407;24.142;-110.310;2023-05-29T07:02:46;20.10;99.90
41722;DHT22;27407;24.142;-110.310;2023-05-29T07:05:12;20.20;99.90
41722;DHT22;27407;24.142;-110.310;2023-05-29T07:07:39;20.10;99.90
41722;DHT22;27407;24.142;-110.310;2023-05-29T07:10:06;20.00;99.90
41722;DHT22;27407;24.142;-110.310;2023-05-29T07:12:36;20.00;99.90
41722;DHT22;27407;24.142;-110.310;2023-05-29T07:15:02;20.00;99.90
41722;DHT22;27407;24.142;-110.310;2023-05-29T07:17:29;19.80;99.90
41722;DHT22;27407;24.142;-110.310;2023-05-29T07:19:56;19.80;99.90
41722;DHT22;27407;24.142;-110.310;2023-05-29T07:22:22;19.80;99.90
41722;DHT22;27407;24.142;-110.310;2023-05-29T07:24:49;20.00;99.90
41722;DHT22;27407;24.142;-110.310;2023-05-29T07:27:15;20.00;99.90
41722;DHT22;27407;24.142;-110.310;2023-05-29T07:29:42;20.00;99.90
41722;DHT22;27407;24.142;-110.310;2023-05-29T07:32:09;20.00;99.90
41722;DHT22;27407;24.142;-110.310;2023-05-29T07:34:36;20.00;99.90
41722;DHT22;27407;24.142;-110.310;2023-05-29T07:37:04;20.00;99.90
41722;DHT22;27407;24.142;-110.310;2023-05-29T07:39:34;20.00;99.90
41722;DHT22;27407;24.142;-110.310;2023-05-29T07:42:03;19.90;99.90
41722;DHT22;27407;24.142;-110.310;2023-05-29T07:44:30;19.90;99.90
41722;DHT22;27407;24.142;-110.310;2023-05-29T07:46:56;19.90;99.90
41722;DHT22;27407;24.142;-110.310;2023-05-29T07:49:23;19.90;99.90
41722;DHT22;27407;24.142;-110.310;2023-05-29T07:51:50;19.90;99.90
41722;DHT22;27407;24.142;-110.310;2023-05-29T07:54:17;19.80;99.90
41722;DHT22;27407;24.142;-110.310;2023-05-29T07:56:46;19.70;99.90
41722;DHT22;27407;24.142;-110.310;2023-05-29T07:59:13;19.70;99.90
41722;DHT22;27407;24.142;-110.310;2023-05-29T08:01:40;19.80;99.90
41722;DHT22;27407;24.142;-110.310;2023-05-29T08:04:07;19.80;99.90
41722;DHT22;27407;24.142;-110.310;2023-05-29T08:06:33;19.80;99.90
41722;DHT22;27407;24.142;-110.310;2023-05-29T08:09:00;19.80;99.90
41722;DHT22;27407;24.142;-110.310;2023-05-29T08:11:31;19.70;99.90
41722;DHT22;27407;24.142;-110.310;2023-05-29T08:13:58;19.60;99.90
41722;DHT22;27407;24.142;-110.310;2023-05-29T08:16:25;19.50;99.90
41722;DHT22;27407;24.142;-110.310;2023-05-29T08:18:53;19.60;99.90
41722;DHT22;27407;24.142;-110.310;2023-05-29T08:21:19;19.70;99.90
41722;DHT22;27407;24.142;-110.310;2023-05-29T08:23:46;19.70;99.90
41722;DHT22;27407;24.142;-110.310;2023-05-29T08:26:13;19.70;99.90
41722;DHT22;27407;24.142;-110.310;2023-05-29T08:28:39;19.70;99.90
41722;DHT22;27407;24.142;-110.310;2023-05-29T08:31:06;19.50;99.90
41722;DHT22;27407;24.142;-110.310;2023-05-29T08:33:33;19.60;99.90
41722;DHT22;27407;24.142;-110.310;2023-05-29T08:36:00;19.70;99.90
41722;DHT22;27407;24.142;-110.310;2023-05-29T08:38:27;19.70;99.90
41722;DHT22;27407;24.142;-110.310;2023-05-29T08:40:56;19.70;99.90
41722;DHT22;27407;24.142;-110.310;2023-05-29T08:43:29;19.60;99.90
41722;DHT22;27407;24.142;-110.310;2023-05-29T08:46:00;19.70;99.90
41722;DHT22;27407;24.142;-110.310;2023-05-29T08:48:28;19.60;99.90
41722;DHT22;27407;24.142;-110.310;2023-05-29T08:50:57;19.60;99.90
41722;DHT22;27407;24.142;-110.310;2023-05-29T08:53:25;19.60;99.90
41722;DHT22;27407;24.142;-110.310;2023-05-29T08:55:52;19.60;99.90
41722;DHT22;27407;24.142;-110.310;2023-05-29T08:58:21;19.60;99.90
41722;DHT22;27407;24.142;-110.310;2023-05-29T09:00:50;19.70;99.90
41722;DHT22;27407;24.142;-110.310;2023-05-29T09:03:21;19.70;99.90
41722;DHT22;27407;24.142;-110.310;2023-05-29T09:05:48;19.80;99.90
41722;DHT22;27407;24.142;-110.310;2023-05-29T09:08:15;19.90;99.90
41722;DHT22;27407;24.142;-110.310;2023-05-29T09:10:43;20.00;99.90
41722;DHT22;27407;24.142;-110.310;2023-05-29T09:13:11;20.00;99.90
41722;DHT22;27407;24.142;-110.310;2023-05-29T09:15:40;20.20;99.90
41722;DHT22;27407;24.142;-110.310;2023-05-29T09:18:09;20.30;99.90
41722;DHT22;27407;24.142;-110.310;2023-05-29T09:20:36;20.40;99.90
41722;DHT22;27407;24.142;-110.310;2023-05-29T09:23:06;20.30;99.90
41722;DHT22;27407;24.142;-110.310;2023-05-29T09:25:35;20.20;99.90
41722;DHT22;27407;24.142;-110.310;2023-05-29T09:28:08;20.20;99.90
41722;DHT22;27407;24.142;-110.310;2023-05-29T09:33:07;20.20;99.90
41722;DHT22;27407;24.142;-110.310;2023-05-29T09:35:41;20.00;99.90
41722;DHT22;27407;24.142;-110.310;2023-05-29T09:38:11;19.90;99.90
41722;DHT22;27407;24.142;-110.310;2023-05-29T09:40:39;19.90;99.90
41722;DHT22;27407;24.142;-110.310;2023-05-29T09:43:10;19.80;99.90
41722;DHT22;27407;24.142;-110.310;2023-05-29T09:45:44;19.60;99.90
41722;DHT22;27407;24.142;-110.310;2023-05-29T09:48:21;19.50;99.90
41722;DHT22;27407;24.142;-110.310;2023-05-29T09:50:49;19.30;99.90
41722;DHT22;27407;24.142;-110.310;2023-05-29T09:53:17;19.20;99.90
41722;DHT22;27407;24.142;-110.310;2023-05-29T09:55:46;19.10;99.90
41722;DHT22;27407;24.142;-110.310;2023-05-29T09:58:17;18.80;99.90
41722;DHT22;27407;24.142;-110.310;2023-05-29T10:00:45;19.10;99.90
41722;DHT22;27407;24.142;-110.310;2023-05-29T10:03:12;18.90;99.90
41722;DHT22;27407;24.142;-110.310;2023-05-29T10:05:42;18.80;99.90
41722;DHT22;27407;24.142;-110.310;2023-05-29T10:08:12;18.80;99.90
41722;DHT22;27407;24.142;-110.310;2023-05-29T10:11:09;18.60;99.90
41722;DHT22;27407;24.142;-110.310;2023-05-29T10:13:42;18.60;99.90
41722;DHT22;27407;24.142;-110.310;2023-05-29T10:16:14;18.50;99.90
41722;DHT22;27407;24.142;-110.310;2023-05-29T10:18:55;18.40;99.90
41722;DHT22;27407;24.142;-110.310;2023-05-29T10:21:27;18.30;99.90
41722;DHT22;27407;24.142;-110.310;2023-05-29T10:23:55;18.30;99.90
41722;DHT22;27407;24.142;-110.310;2023-05-29T10:26:24;18.20;99.90
41722;DHT22;27407;24.142;-110.310;2023-05-29T10:29:16;18.20;99.90
41722;DHT22;27407;24.142;-110.310;2023-05-29T10:32:07;18.10;99.90
41722;DHT22;27407;24.142;-110.310;2023-05-29T10:37:42;18.00;99.90
41722;DHT22;27407;24.142;-110.310;2023-05-29T10:40:10;18.10;99.90
41722;DHT22;27407;24.142;-110.310;2023-05-29T10:42:47;18.00;99.90
41722;DHT22;27407;24.142;-110.310;2023-05-29T10:50:42;17.70;99.90
41722;DHT22;27407;24.142;-110.310;2023-05-29T10:53:10;17.70;99.90
41722;DHT22;27407;24.142;-110.310;2023-05-29T10:55:41;17.70;99.90
41722;DHT22;27407;24.142;-110.310;2023-05-29T10:58:18;17.70;99.90
41722;DHT22;27407;24.142;-110.310;2023-05-29T11:00:46;17.60;99.90
41722;DHT22;27407;24.142;-110.310;2023-05-29T11:03:22;17.60;99.90
41722;DHT22;27407;24.142;-110.310;2023-05-29T11:06:03;17.50;99.90
41722;DHT22;27407;24.142;-110.310;2023-05-29T11:08:48;17.30;99.90
41722;DHT22;27407;24.142;-110.310;2023-05-29T11:11:30;17.40;99.90
41722;DHT22;27407;24.142;-110.310;2023-05-29T11:14:05;17.50;99.90
41722;DHT22;27407;24.142;-110.310;2023-05-29T11:19:04;17.30;99.90
41722;DHT22;27407;24.142;-110.310;2023-05-29T11:24:25;17.40;99.90
41722;DHT22;27407;24.142;-110.310;2023-05-29T11:26:56;17.30;99.90
41722;DHT22;27407;24.142;-110.310;2023-05-29T11:29:29;17.20;99.90
41722;DHT22;27407;24.142;-110.310;2023-05-29T11:32:03;17.30;99.90
41722;DHT22;27407;24.142;-110.310;2023-05-29T11:34:31;17.30;99.90
41722;DHT22;27407;24.142;-110.310;2023-05-29T11:37:02;17.50;99.90
41722;DHT22;27407;24.142;-110.310;2023-05-29T11:39:29;17.30;99.90
41722;DHT22;27407;24.142;-110.310;2023-05-29T11:41:57;17.20;99.90
41722;DHT22;27407;24.142;-110.310;2023-05-29T11:44:26;17.40;99.90
41722;DHT22;27407;24.142;-110.310;2023-05-29T11:47:06;17.40;99.90
41722;DHT22;27407;24.142;-110.310;2023-05-29T11:49:37;17.50;99.90
41722;DHT22;27407;24.142;-110.310;2023-05-29T11:52:13;17.40;99.90
41722;DHT22;27407;24.142;-110.310;2023-05-29T11:54:40;17.30;99.90
41722;DHT22;27407;24.142;-110.310;2023-05-29T11:57:20;17.30;99.90
41722;DHT22;27407;24.142;-110.310;2023-05-29T11:59:50;17.30;99.90
41722;DHT22;27407;24.142;-110.310;2023-05-29T12:02:24;17.40;99.90
41722;DHT22;27407;24.142;-110.310;2023-05-29T12:05:02;17.30;99.90
41722;DHT22;27407;24.142;-110.310;2023-05-29T12:07:30;17.50;99.90
41722;DHT22;27407;24.142;-110.310;2023-05-29T12:09:57;17.40;99.90
41722;DHT22;27407;24.142;-110.310;2023-05-29T12:12:26;17.40;99.90
41722;DHT22;27407;24.142;-110.310;2023-05-29T12:14:55;17.40;99.90
41722;DHT22;27407;24.142;-110.310;2023-05-29T12:17:22;17.40;99.90
41722;DHT22;27407;24.142;-110.310;2023-05-29T12:19:48;17.40;99.90
41722;DHT22;27407;24.142;-110.310;2023-05-29T12:22:15;17.40;99.90
41722;DHT22;27407;24.142;-110.310;2023-05-29T12:24:42;17.30;99.90
41722;DHT22;27407;24.142;-110.310;2023-05-29T12:27:09;17.40;99.90
41722;DHT22;27407;24.142;-110.310;2023-05-29T12:29:36;17.30;99.90
41722;DHT22;27407;24.142;-110.310;2023-05-29T12:32:02;17.30;99.90
41722;DHT22;27407;24.142;-110.310;2023-05-29T12:34:34;17.20;99.90
41722;DHT22;27407;24.142;-110.310;2023-05-29T12:37:09;17.30;99.90
41722;DHT22;27407;24.142;-110.310;2023-05-29T12:39:40;17.30;99.90
41722;DHT22;27407;24.142;-110.310;2023-05-29T12:42:07;17.30;99.90
41722;DHT22;27407;24.142;-110.310;2023-05-29T12:44:33;17.30;99.90
41722;DHT22;27407;24.142;-110.310;2023-05-29T12:47:00;17.40;99.90
41722;DHT22;27407;24.142;-110.310;2023-05-29T12:49:27;17.40;99.90
41722;DHT22;27407;24.142;-110.310;2023-05-29T12:51:55;17.40;99.90
41722;DHT22;27407;24.142;-110.310;2023-05-29T12:54:21;17.50;99.90
41722;DHT22;27407;24.142;-110.310;2023-05-29T12:56:48;17.40;99.90
41722;DHT22;27407;24.142;-110.310;2023-05-29T12:59:16;17.30;99.90
41722;DHT22;27407;24.142;-110.310;2023-05-29T13:01:43;17.30;99.90
41722;DHT22;27407;24.142;-110.310;2023-05-29T13:04:10;17.30;99.90
41722;DHT22;27407;24.142;-110.310;2023-05-29T13:06:38;17.30;99.90
41722;DHT22;27407;24.142;-110.310;2023-05-29T13:09:05;17.50;99.90
41722;DHT22;27407;24.142;-110.310;2023-05-29T13:11:33;17.60;99.90
41722;DHT22;27407;24.142;-110.310;2023-05-29T13:14:00;17.60;99.90
41722;DHT22;27407;24.142;-110.310;2023-05-29T13:16:27;17.70;99.90
41722;DHT22;27407;24.142;-110.310;2023-05-29T13:18:53;17.60;99.90
41722;DHT22;27407;24.142;-110.310;2023-05-29T13:21:20;17.50;99.90
41722;DHT22;27407;24.142;-110.310;2023-05-29T13:23:47;17.70;99.90
41722;DHT22;27407;24.142;-110.310;2023-05-29T13:26:13;17.70;99.90
41722;DHT22;27407;24.142;-110.310;2023-05-29T13:28:40;17.70;99.90
41722;DHT22;27407;24.142;-110.310;2023-05-29T13:31:07;17.90;99.90
41722;DHT22;27407;24.142;-110.310;2023-05-29T13:33:33;17.90;99.90
41722;DHT22;27407;24.142;-110.310;2023-05-29T13:36:00;17.90;99.90
41722;DHT22;27407;24.142;-110.310;2023-05-29T13:38:26;18.00;99.90
41722;DHT22;27407;24.142;-110.310;2023-05-29T13:40:53;18.10;99.90
41722;DHT22;27407;24.142;-110.310;2023-05-29T13:43:20;18.10;99.90
41722;DHT22;27407;24.142;-110.310;2023-05-29T13:45:47;18.10;99.90
41722;DHT22;27407;24.142;-110.310;2023-05-29T13:48:13;18.30;99.90
41722;DHT22;27407;24.142;-110.310;2023-05-29T13:50:40;18.30;99.90
41722;DHT22;27407;24.142;-110.310;2023-05-29T13:53:07;18.40;99.90
41722;DHT22;27407;24.142;-110.310;2023-05-29T13:55:33;18.40;99.90
41722;DHT22;27407;24.142;-110.310;2023-05-29T13:58:00;18.60;99.90
41722;DHT22;27407;24.142;-110.310;2023-05-29T14:00:27;18.70;99.90
41722;DHT22;27407;24.142;-110.310;2023-05-29T14:02:53;18.70;99.90
41722;DHT22;27407;24.142;-110.310;2023-05-29T14:05:20;18.80;99.90
41722;DHT22;27407;24.142;-110.310;2023-05-29T14:07:47;18.90;99.90
41722;DHT22;27407;24.142;-110.310;2023-05-29T14:10:14;18.90;99.90
41722;DHT22;27407;24.142;-110.310;2023-05-29T14:12:40;19.00;99.90
41722;DHT22;27407;24.142;-110.310;2023-05-29T14:15:08;19.10;99.90
41722;DHT22;27407;24.142;-110.310;2023-05-29T14:17:35;19.30;99.90
41722;DHT22;27407;24.142;-110.310;2023-05-29T14:20:01;19.20;99.90
41722;DHT22;27407;24.142;-110.310;2023-05-29T14:22:30;19.20;99.90
41722;DHT22;27407;24.142;-110.310;2023-05-29T14:24:57;19.40;99.90
41722;DHT22;27407;24.142;-110.310;2023-05-29T14:27:26;19.30;99.90
41722;DHT22;27407;24.142;-110.310;2023-05-29T14:29:56;19.40;99.90
41722;DHT22;27407;24.142;-110.310;2023-05-29T14:32:23;19.40;99.90
41722;DHT22;27407;24.142;-110.310;2023-05-29T14:34:50;19.50;99.90
41722;DHT22;27407;24.142;-110.310;2023-05-29T14:37:29;19.30;99.90
41722;DHT22;27407;24.142;-110.310;2023-05-29T14:40:00;19.70;99.90
41722;DHT22;27407;24.142;-110.310;2023-05-29T14:42:35;19.90;99.90
41722;DHT22;27407;24.142;-110.310;2023-05-29T14:45:06;20.00;99.90
41722;DHT22;27407;24.142;-110.310;2023-05-29T14:47:40;20.00;99.90
41722;DHT22;27407;24.142;-110.310;2023-05-29T14:50:08;20.00;99.90
41722;DHT22;27407;24.142;-110.310;2023-05-29T14:52:35;19.90;99.90
41722;DHT22;27407;24.142;-110.310;2023-05-29T14:55:02;20.00;99.90
41722;DHT22;27407;24.142;-110.310;2023-05-29T14:57:32;20.00;99.90
41722;DHT22;27407;24.142;-110.310;2023-05-29T15:00:14;19.90;99.90
41722;DHT22;27407;24.142;-110.310;2023-05-29T15:02:40;20.10;99.90
41722;DHT22;27407;24.142;-110.310;2023-05-29T15:05:31;20.40;99.90
41722;DHT22;27407;24.142;-110.310;2023-05-29T15:07:57;20.40;99.90
41722;DHT22;27407;24.142;-110.310;2023-05-29T15:10:26;20.50;99.90
41722;DHT22;27407;24.142;-110.310;2023-05-29T15:12:54;20.50;99.90
41722;DHT22;27407;24.142;-110.310;2023-05-29T15:15:39;20.80;99.90
41722;DHT22;27407;24.142;-110.310;2023-05-29T15:18:13;20.90;99.90
41722;DHT22;27407;24.142;-110.310;2023-05-29T15:20:46;21.10;99.90
41722;DHT22;27407;24.142;-110.310;2023-05-29T15:23:13;21.10;99.90